LRAR - ARAD

Compiled: 11:32:30 on 21/04/2018

Latest METAR/SPECI Reports

METAR LRAR 211130Z 19007KT 140V220 CAVOK 22/09 Q1021=

Previous reports

METAR LRAR 211100Z 20007KT 170V240 CAVOK 21/09 Q1021=
METAR LRAR 211030Z 20007KT 150V240 CAVOK 21/10 Q1021=
METAR LRAR 211000Z 21007KT 170V240 CAVOK 20/11 Q1022=
METAR LRAR 210930Z 19008KT 160V220 CAVOK 19/10 Q1022=

Latest TAF report

TAF LRAR 211100Z 2112/2121 22008KT CAVOK=

Valid WARNINGS

No valid warnings for LRAR